createdAt,value
2018-12-12T00:00:44.175Z,6.50
2018-12-12T00:03:11.087Z,6.40
2018-12-12T00:05:37.957Z,6.20
2018-12-12T00:08:04.839Z,6.10
2018-12-12T00:10:31.679Z,6.10
2018-12-12T00:12:58.572Z,6.10
2018-12-12T00:15:25.403Z,6.00
2018-12-12T00:17:52.339Z,5.90
2018-12-12T00:20:19.169Z,5.90
2018-12-12T00:22:46.094Z,5.80
2018-12-12T00:25:12.988Z,5.80
2018-12-12T00:27:39.830Z,5.80
2018-12-12T00:30:06.859Z,5.80
2018-12-12T00:32:33.764Z,5.80
2018-12-12T00:35:00.643Z,5.80
2018-12-12T00:37:27.488Z,5.90
2018-12-12T00:39:54.405Z,5.90
2018-12-12T00:42:21.335Z,5.90
2018-12-12T00:44:48.172Z,6.00
2018-12-12T00:47:15.020Z,6.10
2018-12-12T00:49:41.875Z,6.30
2018-12-12T00:52:08.744Z,6.50
2018-12-12T00:54:35.572Z,6.60
2018-12-12T00:57:02.428Z,6.60
2018-12-12T00:59:29.274Z,6.60
2018-12-12T01:01:56.135Z,6.80
2018-12-12T01:04:22.975Z,6.80
2018-12-12T01:06:49.901Z,6.60
2018-12-12T01:09:16.792Z,6.30
2018-12-12T01:11:43.721Z,6.30
2018-12-12T01:14:10.588Z,6.20
2018-12-12T01:16:37.443Z,6.10
2018-12-12T01:19:04.368Z,6.10
2018-12-12T01:21:31.220Z,6.10
2018-12-12T01:23:58.063Z,6.20
2018-12-12T01:26:24.991Z,6.30
2018-12-12T01:28:51.833Z,6.30
2018-12-12T01:31:18.688Z,6.40
2018-12-12T01:33:45.536Z,6.40
2018-12-12T01:36:12.391Z,6.40
2018-12-12T01:38:39.328Z,6.50
2018-12-12T01:41:06.179Z,6.50
2018-12-12T01:43:33.052Z,6.50
2018-12-12T01:45:59.928Z,6.50
2018-12-12T01:48:26.765Z,6.50
2018-12-12T01:50:53.629Z,6.60
2018-12-12T01:53:20.475Z,6.60
2018-12-12T01:55:47.384Z,6.60
2018-12-12T01:58:14.245Z,6.60
2018-12-12T02:00:41.087Z,6.60
2018-12-12T02:03:07.951Z,6.50
2018-12-12T02:05:34.779Z,6.40
2018-12-12T02:08:01.611Z,6.50
2018-12-12T02:10:28.558Z,6.50
2018-12-12T02:13:07.513Z,6.50
2018-12-12T02:15:34.358Z,6.50
2018-12-12T02:18:01.266Z,6.40
2018-12-12T02:20:28.141Z,6.40
2018-12-12T02:22:55.002Z,6.50
2018-12-12T02:25:21.922Z,6.50
2018-12-12T02:27:48.749Z,6.50
2018-12-12T02:30:15.646Z,6.40
2018-12-12T02:32:42.622Z,6.30
2018-12-12T02:35:09.488Z,6.30
2018-12-12T02:37:36.455Z,6.40
2018-12-12T02:40:03.749Z,6.40
2018-12-12T02:42:30.638Z,6.40
2018-12-12T02:44:57.501Z,6.40
2018-12-12T02:47:24.389Z,6.40
2018-12-12T02:49:51.283Z,6.40
2018-12-12T02:52:18.179Z,6.50
2018-12-12T02:54:45.028Z,6.50
2018-12-12T02:57:11.922Z,6.50
2018-12-12T02:59:38.809Z,6.50
2018-12-12T03:02:05.704Z,6.40
2018-12-12T03:04:32.572Z,6.30
2018-12-12T03:06:59.436Z,6.40
2018-12-12T03:09:26.312Z,6.40
2018-12-12T03:11:53.171Z,6.50
2018-12-12T03:14:20.060Z,6.50
2018-12-12T03:16:46.941Z,6.40
2018-12-12T03:19:13.816Z,6.40
2018-12-12T03:21:40.692Z,6.40
2018-12-12T03:24:07.562Z,6.50
2018-12-12T03:26:34.455Z,6.50
2018-12-12T03:29:01.438Z,6.50
2018-12-12T03:31:28.310Z,6.50
2018-12-12T03:33:55.194Z,6.50
2018-12-12T03:36:22.071Z,6.50
2018-12-12T03:38:48.965Z,6.50
2018-12-12T03:41:15.833Z,6.50
2018-12-12T03:43:42.718Z,6.50
2018-12-12T03:46:09.668Z,6.50
2018-12-12T03:48:36.594Z,6.50
2018-12-12T03:51:03.496Z,6.30
2018-12-12T03:53:30.462Z,6.30
2018-12-12T03:55:57.406Z,6.30
2018-12-12T03:58:24.293Z,6.30
2018-12-12T04:00:51.170Z,6.30
2018-12-12T04:03:18.049Z,6.30
2018-12-12T04:05:45.035Z,6.30
2018-12-12T04:08:11.904Z,6.30
2018-12-12T04:10:38.771Z,6.30
2018-12-12T04:13:05.669Z,6.30
2018-12-12T04:15:32.525Z,6.30
2018-12-12T04:17:59.413Z,6.20
2018-12-12T04:20:26.290Z,6.20
2018-12-12T04:22:53.182Z,6.20
2018-12-12T04:25:20.083Z,6.30
2018-12-12T04:27:46.954Z,6.30
2018-12-12T04:30:13.838Z,6.40
2018-12-12T04:32:40.695Z,6.30
2018-12-12T04:35:07.645Z,6.40
2018-12-12T04:37:34.536Z,6.40
2018-12-12T04:40:01.692Z,6.40
2018-12-12T04:42:28.567Z,6.30
2018-12-12T04:44:55.470Z,6.20
2018-12-12T04:47:22.338Z,6.30
2018-12-12T04:49:49.211Z,6.30
2018-12-12T04:52:16.105Z,6.30
2018-12-12T04:54:42.989Z,6.20
2018-12-12T04:57:09.904Z,6.10
2018-12-12T04:59:36.765Z,6.20
2018-12-12T05:02:03.698Z,6.10
2018-12-12T05:04:30.586Z,6.10
2018-12-12T05:06:57.451Z,6.00
2018-12-12T05:09:24.351Z,6.10
2018-12-12T05:11:51.216Z,6.10
2018-12-12T05:14:18.114Z,6.10
2018-12-12T05:16:45.002Z,6.00
2018-12-12T05:19:11.864Z,6.00
2018-12-12T05:21:38.758Z,5.90
2018-12-12T05:24:05.641Z,5.90
2018-12-12T05:26:32.510Z,5.90
2018-12-12T05:28:59.406Z,5.90
2018-12-12T05:31:26.314Z,6.00
2018-12-12T05:33:53.238Z,6.00
2018-12-12T05:36:20.129Z,6.00
2018-12-12T05:38:47.013Z,6.00
2018-12-12T05:41:13.887Z,6.10
2018-12-12T05:43:40.789Z,6.00
2018-12-12T05:46:07.660Z,5.90
2018-12-12T05:48:34.545Z,5.80
2018-12-12T05:51:01.455Z,5.80
2018-12-12T05:53:28.314Z,5.70
2018-12-12T05:55:55.187Z,5.70
2018-12-12T05:58:22.071Z,5.80
2018-12-12T06:00:48.965Z,5.80
2018-12-12T06:03:15.829Z,5.80
2018-12-12T06:05:42.773Z,5.90
2018-12-12T06:08:09.645Z,5.90
2018-12-12T06:10:36.543Z,5.90
2018-12-12T06:13:03.456Z,6.00
2018-12-12T06:15:30.341Z,5.90
2018-12-12T06:17:57.233Z,5.90
2018-12-12T06:20:24.156Z,5.90
2018-12-12T06:22:51.054Z,5.90
2018-12-12T06:25:17.930Z,5.90
2018-12-12T06:27:44.822Z,6.00
2018-12-12T06:30:11.769Z,6.00
2018-12-12T06:32:38.699Z,6.10
2018-12-12T06:35:05.714Z,6.10
2018-12-12T06:37:32.629Z,6.20
2018-12-12T06:39:59.504Z,6.20
2018-12-12T06:42:26.383Z,6.20
2018-12-12T06:44:53.274Z,6.30
2018-12-12T06:47:20.144Z,6.10
2018-12-12T06:49:47.032Z,6.20
2018-12-12T06:52:13.913Z,6.10
2018-12-12T06:54:40.793Z,6.10
2018-12-12T06:57:07.698Z,6.10
2018-12-12T06:59:34.637Z,6.10
2018-12-12T07:02:01.525Z,6.20
2018-12-12T07:04:28.430Z,6.20
2018-12-12T07:06:55.308Z,6.20
2018-12-12T07:09:22.170Z,6.20
2018-12-12T07:11:49.689Z,6.20
2018-12-12T07:14:16.587Z,6.20
2018-12-12T07:16:43.461Z,6.30
2018-12-12T07:19:10.353Z,6.30
2018-12-12T07:21:37.229Z,6.20
2018-12-12T07:24:04.121Z,6.30
2018-12-12T07:26:31.016Z,6.30
2018-12-12T07:28:57.909Z,6.40
2018-12-12T07:31:24.793Z,6.40
2018-12-12T07:33:51.721Z,6.40
2018-12-12T07:36:18.602Z,6.50
2018-12-12T07:38:45.491Z,6.60
2018-12-12T07:41:12.353Z,6.50
2018-12-12T07:43:39.250Z,6.50
2018-12-12T07:46:06.116Z,6.60
2018-12-12T07:48:32.985Z,6.50
2018-12-12T07:50:59.881Z,6.40
2018-12-12T07:53:26.769Z,6.40
2018-12-12T07:55:54.382Z,6.40
2018-12-12T07:58:21.246Z,6.40
2018-12-12T08:00:48.127Z,6.30
2018-12-12T08:03:15.026Z,6.20
2018-12-12T08:05:41.899Z,6.20
2018-12-12T08:08:08.794Z,6.20
2018-12-12T08:10:35.657Z,6.30
2018-12-12T08:13:02.535Z,6.20
2018-12-12T08:15:29.438Z,6.10
2018-12-12T08:17:56.306Z,6.20
2018-12-12T08:20:23.183Z,6.20
2018-12-12T08:22:50.069Z,6.20
2018-12-12T08:25:17.006Z,6.30
2018-12-12T08:27:43.893Z,6.40
2018-12-12T08:30:11.483Z,6.50
2018-12-12T08:32:38.383Z,6.60
2018-12-12T08:35:05.369Z,6.70
2018-12-12T08:37:32.267Z,6.70
2018-12-12T08:39:59.140Z,6.70
2018-12-12T08:42:26.018Z,6.80
2018-12-12T08:44:52.994Z,6.80
2018-12-12T08:47:19.892Z,6.90
2018-12-12T08:49:46.761Z,6.90
2018-12-12T08:52:19.630Z,7.00
2018-12-12T08:54:46.499Z,7.10
2018-12-12T08:57:13.353Z,7.10
2018-12-12T08:59:40.262Z,7.10
2018-12-12T09:02:07.130Z,7.10
2018-12-12T09:04:34.039Z,7.10
2018-12-12T09:07:00.917Z,7.00
2018-12-12T09:09:27.783Z,7.00
2018-12-12T09:11:54.684Z,7.00
2018-12-12T09:14:21.645Z,7.10
2018-12-12T09:16:48.510Z,7.10
2018-12-12T09:19:15.394Z,7.20
2018-12-12T09:21:42.262Z,7.20
2018-12-12T09:24:09.150Z,7.10
2018-12-12T09:26:36.038Z,7.00
2018-12-12T09:29:02.929Z,6.90
2018-12-12T09:31:29.834Z,6.80
2018-12-12T09:33:56.694Z,6.60
2018-12-12T09:36:23.693Z,6.40
2018-12-12T09:38:50.577Z,6.50
2018-12-12T09:41:17.454Z,6.50
2018-12-12T09:43:44.340Z,6.50
2018-12-12T09:46:11.227Z,6.30
2018-12-12T09:48:38.114Z,6.20
2018-12-12T09:51:07.252Z,6.30
2018-12-12T09:53:34.160Z,6.50
2018-12-12T09:56:01.102Z,6.60
2018-12-12T09:58:27.986Z,6.50
2018-12-12T10:00:54.877Z,6.50
2018-12-12T10:03:21.775Z,6.50
2018-12-12T10:05:48.673Z,6.50
2018-12-12T10:08:15.524Z,6.50
2018-12-12T10:10:42.414Z,6.60
2018-12-12T10:13:09.306Z,6.50
2018-12-12T10:15:36.198Z,6.50
2018-12-12T10:18:03.129Z,6.40
2018-12-12T10:20:30.055Z,6.40
2018-12-12T10:22:56.941Z,6.50
2018-12-12T10:25:23.838Z,6.30
2018-12-12T10:27:50.768Z,6.30
2018-12-12T10:30:17.615Z,6.30
2018-12-12T10:32:44.503Z,6.50
2018-12-12T10:35:11.372Z,6.50
2018-12-12T10:37:38.261Z,6.60
2018-12-12T10:40:05.234Z,6.80
2018-12-12T10:42:32.118Z,6.80
2018-12-12T10:44:59.001Z,6.90
2018-12-12T10:47:25.882Z,7.00
2018-12-12T10:49:52.778Z,7.10
2018-12-12T10:52:20.099Z,7.10
2018-12-12T10:54:47.069Z,7.20
2018-12-12T10:57:14.021Z,7.30
2018-12-12T10:59:40.894Z,7.40
2018-12-12T11:02:07.837Z,7.40
2018-12-12T11:04:34.706Z,7.50
2018-12-12T11:07:01.595Z,7.50
2018-12-12T11:09:28.491Z,7.40
2018-12-12T11:11:55.399Z,7.50
2018-12-12T11:14:22.283Z,7.40
2018-12-12T11:16:49.227Z,7.40
2018-12-12T11:19:16.389Z,7.50
2018-12-12T11:21:43.278Z,7.60
2018-12-12T11:24:10.156Z,7.70
2018-12-12T11:26:37.108Z,7.80
2018-12-12T11:29:04.018Z,7.70
2018-12-12T11:31:30.912Z,7.80
2018-12-12T11:33:57.875Z,7.80
2018-12-12T11:36:24.737Z,7.90
2018-12-12T11:38:51.608Z,7.90
2018-12-12T11:41:18.490Z,8.00
2018-12-12T11:43:45.370Z,8.00
2018-12-12T11:46:12.264Z,8.10
2018-12-12T11:48:39.146Z,8.10
2018-12-12T11:51:06.006Z,8.00
2018-12-12T11:53:32.866Z,7.90
2018-12-12T11:55:59.749Z,8.00
2018-12-12T11:58:26.630Z,8.10
2018-12-12T12:00:53.521Z,8.00
2018-12-12T12:03:20.410Z,8.00
2018-12-12T12:05:47.289Z,7.90
2018-12-12T12:08:14.149Z,7.80
2018-12-12T12:10:41.030Z,7.90
2018-12-12T12:13:07.931Z,8.00
2018-12-12T12:15:34.809Z,7.90
2018-12-12T12:18:01.712Z,7.80
2018-12-12T12:20:28.703Z,7.80
2018-12-12T12:22:55.566Z,7.80
2018-12-12T12:25:22.462Z,7.70
2018-12-12T12:27:49.338Z,7.70
2018-12-12T12:30:16.207Z,7.70
2018-12-12T12:32:43.099Z,7.80
2018-12-12T12:35:10.110Z,7.90
2018-12-12T12:37:36.982Z,8.00
2018-12-12T12:40:05.839Z,8.10
2018-12-12T12:42:32.860Z,8.10
2018-12-12T12:44:59.722Z,8.00
2018-12-12T12:47:26.609Z,7.80
2018-12-12T12:49:53.469Z,7.50
2018-12-12T12:52:20.654Z,7.30
2018-12-12T12:54:47.530Z,7.30
2018-12-12T12:57:14.416Z,7.30
2018-12-12T12:59:41.303Z,7.30
2018-12-12T13:02:08.218Z,7.30
2018-12-12T13:04:35.097Z,7.30
2018-12-12T13:07:01.962Z,7.40
2018-12-12T13:09:28.847Z,7.50
2018-12-12T13:11:55.810Z,7.60
2018-12-12T13:14:22.821Z,7.70
2018-12-12T13:16:49.789Z,7.90
2018-12-12T13:19:16.661Z,8.00
2018-12-12T13:21:43.546Z,7.90
2018-12-12T13:24:10.442Z,8.00
2018-12-12T13:26:37.307Z,7.80
2018-12-12T13:29:05.045Z,7.60
2018-12-12T13:31:31.943Z,7.60
2018-12-12T13:33:58.795Z,7.30
2018-12-12T13:36:25.679Z,7.10
2018-12-12T13:38:52.550Z,7.10
2018-12-12T13:41:19.443Z,7.00
2018-12-12T13:43:46.339Z,6.90
2018-12-12T13:46:13.220Z,6.80
2018-12-12T13:48:40.174Z,6.90
2018-12-12T13:51:07.038Z,6.80
2018-12-12T13:53:33.925Z,6.70
2018-12-12T13:56:00.854Z,6.70
2018-12-12T13:58:27.787Z,6.60
2018-12-12T14:00:54.658Z,6.60
2018-12-12T14:03:21.553Z,6.70
2018-12-12T14:05:48.473Z,6.80
2018-12-12T14:08:15.377Z,6.90
2018-12-12T14:10:42.249Z,6.90
2018-12-12T14:13:09.182Z,6.90
2018-12-12T14:15:36.050Z,6.90
2018-12-12T14:18:02.978Z,6.90
2018-12-12T14:20:29.868Z,7.00
2018-12-12T14:22:56.754Z,7.10
2018-12-12T14:25:23.639Z,7.20
2018-12-12T14:27:50.522Z,7.30
2018-12-12T14:30:17.389Z,7.30
2018-12-12T14:32:44.262Z,7.40
2018-12-12T14:35:11.206Z,7.40
2018-12-12T14:37:38.091Z,7.50
2018-12-12T14:40:05.234Z,7.50
2018-12-12T14:42:32.130Z,7.60
2018-12-12T14:44:59.008Z,7.70
2018-12-12T14:47:25.900Z,7.60
2018-12-12T14:49:52.766Z,7.40
2018-12-12T14:52:19.649Z,7.40
2018-12-12T14:54:46.561Z,7.20
2018-12-12T14:57:13.441Z,6.90
2018-12-12T14:59:40.337Z,6.80
2018-12-12T15:02:07.212Z,6.50
2018-12-12T15:04:35.987Z,6.50
2018-12-12T15:07:02.970Z,6.30
2018-12-12T15:09:29.843Z,6.30
2018-12-12T15:11:56.733Z,6.40
2018-12-12T15:14:23.651Z,6.30
2018-12-12T15:16:50.543Z,6.30
2018-12-12T15:19:17.457Z,6.40
2018-12-12T15:21:44.340Z,6.30
2018-12-12T15:24:11.235Z,6.30
2018-12-12T15:26:38.098Z,6.30
2018-12-12T15:29:04.973Z,6.30
2018-12-12T15:31:31.901Z,6.30
2018-12-12T15:33:58.815Z,6.10
2018-12-12T15:36:25.711Z,5.90
2018-12-12T15:38:52.603Z,5.90
2018-12-12T15:41:19.492Z,5.90
2018-12-12T15:43:46.411Z,6.00
2018-12-12T15:46:13.306Z,5.80
2018-12-12T15:48:40.180Z,5.80
2018-12-12T15:51:07.077Z,5.80
2018-12-12T15:53:33.950Z,5.80
2018-12-12T15:56:00.807Z,5.90
2018-12-12T15:58:27.706Z,5.90
2018-12-12T16:00:54.565Z,5.90
2018-12-12T16:03:21.477Z,6.00
2018-12-12T16:05:48.366Z,6.00
2018-12-12T16:08:15.252Z,6.00
2018-12-12T16:10:42.105Z,6.00
2018-12-12T16:13:08.976Z,6.00
2018-12-12T16:15:35.896Z,6.00
2018-12-12T16:18:02.804Z,6.00
2018-12-12T16:20:29.702Z,6.00
2018-12-12T16:22:56.549Z,6.10
2018-12-12T16:25:23.523Z,6.00
2018-12-12T16:27:50.390Z,5.90
2018-12-12T16:30:17.254Z,5.90
2018-12-12T16:32:44.166Z,5.80
2018-12-12T16:35:11.062Z,5.90
2018-12-12T16:37:38.710Z,5.80
2018-12-12T16:40:05.706Z,5.90
2018-12-12T16:42:32.574Z,5.80
2018-12-12T16:44:59.438Z,5.70
2018-12-12T16:47:26.346Z,5.80
2018-12-12T16:49:53.228Z,5.90
2018-12-12T16:52:20.346Z,5.90
2018-12-12T16:54:47.214Z,5.90
2018-12-12T16:57:14.110Z,5.90
2018-12-12T16:59:40.977Z,5.90
2018-12-12T17:02:07.876Z,6.00
2018-12-12T17:04:34.738Z,6.00
2018-12-12T17:07:01.610Z,6.00
2018-12-12T17:09:28.502Z,5.90
2018-12-12T17:11:55.393Z,5.90
2018-12-12T17:14:22.290Z,5.80
2018-12-12T17:16:49.177Z,5.70
2018-12-12T17:19:16.053Z,5.70
2018-12-12T17:21:42.977Z,5.80
2018-12-12T17:24:09.857Z,5.90
2018-12-12T17:26:36.743Z,5.90
2018-12-12T17:29:03.663Z,5.80
2018-12-12T17:31:30.543Z,5.90
2018-12-12T17:33:57.411Z,5.80
2018-12-12T17:36:24.386Z,5.80
2018-12-12T17:38:51.253Z,5.80
2018-12-12T17:41:18.158Z,5.70
2018-12-12T17:43:45.034Z,5.70
2018-12-12T17:46:11.918Z,5.70
2018-12-12T17:48:38.838Z,5.60
2018-12-12T17:51:05.786Z,5.60
2018-12-12T17:53:32.641Z,5.60
2018-12-12T17:55:59.527Z,5.60
2018-12-12T17:58:27.297Z,5.40
2018-12-12T18:00:54.193Z,5.40
2018-12-12T18:03:21.049Z,5.30
2018-12-12T18:05:47.921Z,5.30
2018-12-12T18:08:14.801Z,5.30
2018-12-12T18:10:41.705Z,5.20
2018-12-12T18:13:08.569Z,5.20
2018-12-12T18:15:35.614Z,5.10
2018-12-12T18:18:02.498Z,5.10
2018-12-12T18:20:29.432Z,5.10
2018-12-12T18:22:56.355Z,5.20
2018-12-12T18:25:23.223Z,5.20
2018-12-12T18:27:50.097Z,5.00
2018-12-12T18:30:16.997Z,4.90
2018-12-12T18:32:43.870Z,5.10
2018-12-12T18:35:11.358Z,5.00
2018-12-12T18:37:38.321Z,5.00
2018-12-12T18:40:05.350Z,5.10
2018-12-12T18:42:32.229Z,5.00
2018-12-12T18:44:59.135Z,5.00
2018-12-12T18:47:26.022Z,4.90
2018-12-12T18:49:52.890Z,4.90
2018-12-12T18:52:19.798Z,5.00
2018-12-12T18:54:46.719Z,5.10
2018-12-12T18:57:13.611Z,5.10
2018-12-12T18:59:40.511Z,5.20
2018-12-12T19:02:07.395Z,5.20
2018-12-12T19:04:34.288Z,5.30
2018-12-12T19:07:01.196Z,5.40
2018-12-12T19:09:28.097Z,5.30
2018-12-12T19:11:54.965Z,5.20
2018-12-12T19:14:21.894Z,5.20
2018-12-12T19:16:48.785Z,5.10
2018-12-12T19:19:15.744Z,5.00
2018-12-12T19:21:42.734Z,5.00
2018-12-12T19:24:09.666Z,5.10
2018-12-12T19:26:36.557Z,5.20
2018-12-12T19:29:03.514Z,5.10
2018-12-12T19:31:30.379Z,5.10
2018-12-12T19:33:57.287Z,5.10
2018-12-12T19:36:24.240Z,5.10
2018-12-12T19:38:51.125Z,5.10
2018-12-12T19:41:18.004Z,5.20
2018-12-12T19:43:45.039Z,5.20
2018-12-12T19:46:11.913Z,5.10
2018-12-12T19:48:38.868Z,5.10
2018-12-12T19:51:05.770Z,5.00
2018-12-12T19:53:32.671Z,5.10
2018-12-12T19:55:59.602Z,5.00
2018-12-12T19:58:26.531Z,5.00
2018-12-12T20:00:53.408Z,5.00
2018-12-12T20:03:20.298Z,5.00
2018-12-12T20:05:47.193Z,4.90
2018-12-12T20:08:14.087Z,5.00
2018-12-12T20:10:40.982Z,5.00
2018-12-12T20:13:07.950Z,5.00
2018-12-12T20:15:34.888Z,5.10
2018-12-12T20:18:01.777Z,5.10
2018-12-12T20:20:28.742Z,5.20
2018-12-12T20:22:55.638Z,5.10
2018-12-12T20:25:22.530Z,5.10
2018-12-12T20:27:49.499Z,5.20
2018-12-12T20:30:16.438Z,5.20
2018-12-12T20:32:43.381Z,5.30
2018-12-12T20:35:10.312Z,5.20
2018-12-12T20:37:37.184Z,5.10
2018-12-12T20:40:04.804Z,5.10
2018-12-12T20:42:31.672Z,5.10
2018-12-12T20:44:58.851Z,5.10
2018-12-12T20:47:25.721Z,5.10
2018-12-12T20:49:52.623Z,5.10
2018-12-12T20:52:19.519Z,5.10
2018-12-12T20:54:46.433Z,5.20
2018-12-12T20:57:13.294Z,5.20
2018-12-12T20:59:40.199Z,5.20
2018-12-12T21:02:07.073Z,5.30
2018-12-12T21:04:33.954Z,5.20
2018-12-12T21:07:00.850Z,5.20
2018-12-12T21:09:27.743Z,5.20
2018-12-12T21:11:54.639Z,5.20
2018-12-12T21:14:21.533Z,5.30
2018-12-12T21:19:24.669Z,5.20
2018-12-12T21:21:51.608Z,5.20
2018-12-12T21:24:18.483Z,5.20
2018-12-12T21:26:45.444Z,5.30
2018-12-12T21:29:12.373Z,5.30
2018-12-12T21:31:39.271Z,5.40
2018-12-12T21:34:06.189Z,5.40
2018-12-12T21:36:33.113Z,5.30
2018-12-12T21:39:00.045Z,5.40
2018-12-12T21:41:26.919Z,5.50
2018-12-12T21:43:53.825Z,5.40
2018-12-12T21:46:20.705Z,5.50
2018-12-12T21:48:47.601Z,5.50
2018-12-12T21:51:14.469Z,5.50
2018-12-12T21:53:41.405Z,5.50
2018-12-12T21:56:08.291Z,5.50
2018-12-12T21:58:35.199Z,5.50
2018-12-12T22:01:02.738Z,5.50
2018-12-12T22:03:29.650Z,5.50
2018-12-12T22:05:56.538Z,5.50
2018-12-12T22:08:23.462Z,5.50
2018-12-12T22:10:50.409Z,5.50
2018-12-12T22:13:17.333Z,5.60
2018-12-12T22:15:44.202Z,5.60
2018-12-12T22:18:11.098Z,5.60
2018-12-12T22:20:39.310Z,5.70
2018-12-12T22:23:06.541Z,5.80
2018-12-12T22:25:33.426Z,5.70
2018-12-12T22:28:00.293Z,5.60
2018-12-12T22:30:27.191Z,5.60
2018-12-12T22:32:54.057Z,5.70
2018-12-12T22:35:20.958Z,5.60
2018-12-12T22:37:48.005Z,5.50
2018-12-12T22:40:14.887Z,5.50
2018-12-12T22:42:41.780Z,5.50
2018-12-12T22:45:08.982Z,5.50
2018-12-12T22:47:35.891Z,5.40
2018-12-12T22:50:03.294Z,5.40
2018-12-12T22:52:30.168Z,5.30
2018-12-12T22:54:57.061Z,5.40
2018-12-12T22:57:23.956Z,5.40
2018-12-12T22:59:50.862Z,5.50
2018-12-12T23:02:17.762Z,5.50
2018-12-12T23:04:44.669Z,5.50
2018-12-12T23:07:11.609Z,5.50
2018-12-12T23:09:38.526Z,5.50
2018-12-12T23:12:05.422Z,5.50
2018-12-12T23:14:32.412Z,5.50
2018-12-12T23:16:59.342Z,5.50
2018-12-12T23:19:26.206Z,5.60
2018-12-12T23:21:53.097Z,5.60
2018-12-12T23:24:25.062Z,5.60
2018-12-12T23:26:48.847Z,5.60
2018-12-12T23:29:15.731Z,5.70
2018-12-12T23:31:42.619Z,5.70
2018-12-12T23:34:09.477Z,5.80
2018-12-12T23:36:36.422Z,5.80
2018-12-12T23:39:05.394Z,5.70
2018-12-12T23:41:32.489Z,5.70
2018-12-12T23:43:59.353Z,5.60
2018-12-12T23:46:26.246Z,5.60
2018-12-12T23:48:53.358Z,5.60
2018-12-12T23:51:20.242Z,5.60
2018-12-12T23:53:47.126Z,5.60
2018-12-12T23:56:13.985Z,5.60
2018-12-12T23:58:40.884Z,5.50
